sensor_id;sensor_type;location;lat;lon;timestamp;P1;durP1;ratioP1;P2;durP2;ratioP2
22164;SDS011;11248;52.512;13.520;2022-11-11T00:00:01;8.98;;;2.72;;
22164;SDS011;11248;52.512;13.520;2022-11-11T00:02:27;6.95;;;2.97;;
22164;SDS011;11248;52.512;13.520;2022-11-11T00:04:53;9.32;;;3.10;;
22164;SDS011;11248;52.512;13.520;2022-11-11T00:07:19;11.57;;;2.97;;
22164;SDS011;11248;52.512;13.520;2022-11-11T00:09:45;8.23;;;2.67;;
22164;SDS011;11248;52.512;13.520;2022-11-11T00:12:11;8.63;;;2.95;;
22164;SDS011;11248;52.512;13.520;2022-11-11T00:14:37;6.63;;;2.55;;
22164;SDS011;11248;52.512;13.520;2022-11-11T00:17:03;8.20;;;2.85;;
22164;SDS011;11248;52.512;13.520;2022-11-11T00:19:47;7.80;;;2.90;;
22164;SDS011;11248;52.512;13.520;2022-11-11T00:22:32;8.13;;;2.95;;
22164;SDS011;11248;52.512;13.520;2022-11-11T00:25:17;8.15;;;3.30;;
22164;SDS011;11248;52.512;13.520;2022-11-11T00:27:42;10.20;;;2.97;;
22164;SDS011;11248;52.512;13.520;2022-11-11T00:30:08;10.20;;;2.80;;
22164;SDS011;11248;52.512;13.520;2022-11-11T00:32:34;11.45;;;3.17;;
22164;SDS011;11248;52.512;13.520;2022-11-11T00:35:00;9.13;;;2.55;;
22164;SDS011;11248;52.512;13.520;2022-11-11T00:37:45;9.18;;;2.58;;
22164;SDS011;11248;52.512;13.520;2022-11-11T00:40:14;7.68;;;3.03;;
22164;SDS011;11248;52.512;13.520;2022-11-11T00:42:41;6.72;;;2.45;;
22164;SDS011;11248;52.512;13.520;2022-11-11T00:45:07;9.20;;;2.58;;
22164;SDS011;11248;52.512;13.520;2022-11-11T00:47:33;8.43;;;2.70;;
22164;SDS011;11248;52.512;13.520;2022-11-11T00:50:22;8.10;;;2.95;;
22164;SDS011;11248;52.512;13.520;2022-11-11T00:53:17;7.82;;;2.97;;
22164;SDS011;11248;52.512;13.520;2022-11-11T00:55:43;8.95;;;3.13;;
22164;SDS011;11248;52.512;13.520;2022-11-11T00:58:09;9.57;;;2.92;;
22164;SDS011;11248;52.512;13.520;2022-11-11T01:00:35;9.15;;;2.80;;
22164;SDS011;11248;52.512;13.520;2022-11-11T01:03:01;5.95;;;2.78;;
22164;SDS011;11248;52.512;13.520;2022-11-11T01:05:27;11.85;;;3.17;;
22164;SDS011;11248;52.512;13.520;2022-11-11T01:07:53;7.40;;;2.58;;
22164;SDS011;11248;52.512;13.520;2022-11-11T01:10:20;7.95;;;2.55;;
22164;SDS011;11248;52.512;13.520;2022-11-11T01:13:06;6.00;;;2.50;;
22164;SDS011;11248;52.512;13.520;2022-11-11T01:15:38;7.55;;;2.72;;
22164;SDS011;11248;52.512;13.520;2022-11-11T01:18:05;7.30;;;2.80;;
22164;SDS011;11248;52.512;13.520;2022-11-11T01:20:31;5.53;;;2.30;;
22164;SDS011;11248;52.512;13.520;2022-11-11T01:22:57;6.68;;;3.10;;
22164;SDS011;11248;52.512;13.520;2022-11-11T01:25:23;7.32;;;2.97;;
22164;SDS011;11248;52.512;13.520;2022-11-11T01:27:49;12.13;;;2.95;;
22164;SDS011;11248;52.512;13.520;2022-11-11T01:30:15;9.35;;;3.28;;
22164;SDS011;11248;52.512;13.520;2022-11-11T01:32:41;6.97;;;2.53;;
22164;SDS011;11248;52.512;13.520;2022-11-11T01:35:07;10.50;;;3.03;;
22164;SDS011;11248;52.512;13.520;2022-11-11T01:37:33;7.93;;;2.80;;
22164;SDS011;11248;52.512;13.520;2022-11-11T01:39:59;9.05;;;3.47;;
22164;SDS011;11248;52.512;13.520;2022-11-11T01:42:25;6.07;;;2.67;;
22164;SDS011;11248;52.512;13.520;2022-11-11T01:44:51;8.98;;;3.28;;
22164;SDS011;11248;52.512;13.520;2022-11-11T01:47:17;7.40;;;2.92;;
22164;SDS011;11248;52.512;13.520;2022-11-11T01:50:06;7.75;;;2.78;;
22164;SDS011;11248;52.512;13.520;2022-11-11T01:52:31;9.43;;;2.72;;
22164;SDS011;11248;52.512;13.520;2022-11-11T01:55:01;6.00;;;2.53;;
22164;SDS011;11248;52.512;13.520;2022-11-11T01:57:36;4.60;;;2.83;;
22164;SDS011;11248;52.512;13.520;2022-11-11T02:00:04;5.95;;;2.78;;
22164;SDS011;11248;52.512;13.520;2022-11-11T02:02:42;7.85;;;2.80;;
22164;SDS011;11248;52.512;13.520;2022-11-11T02:05:10;6.13;;;2.10;;
22164;SDS011;11248;52.512;13.520;2022-11-11T02:07:55;7.68;;;3.30;;
22164;SDS011;11248;52.512;13.520;2022-11-11T02:10:22;7.95;;;2.78;;
22164;SDS011;11248;52.512;13.520;2022-11-11T02:12:49;6.38;;;2.45;;
22164;SDS011;11248;52.512;13.520;2022-11-11T02:15:33;5.38;;;2.33;;
22164;SDS011;11248;52.512;13.520;2022-11-11T02:18:00;9.80;;;3.00;;
22164;SDS011;11248;52.512;13.520;2022-11-11T02:20:26;7.30;;;3.25;;
22164;SDS011;11248;52.512;13.520;2022-11-11T02:22:57;7.32;;;2.90;;
22164;SDS011;11248;52.512;13.520;2022-11-11T02:25:26;6.30;;;2.78;;
22164;SDS011;11248;52.512;13.520;2022-11-11T02:27:55;7.75;;;2.70;;
22164;SDS011;11248;52.512;13.520;2022-11-11T02:30:23;11.15;;;2.92;;
22164;SDS011;11248;52.512;13.520;2022-11-11T02:32:50;7.45;;;3.30;;
22164;SDS011;11248;52.512;13.520;2022-11-11T02:35:17;11.13;;;3.30;;
22164;SDS011;11248;52.512;13.520;2022-11-11T02:37:44;7.00;;;3.15;;
22164;SDS011;11248;52.512;13.520;2022-11-11T02:40:18;7.65;;;2.75;;
22164;SDS011;11248;52.512;13.520;2022-11-11T02:45:11;7.25;;;2.70;;
22164;SDS011;11248;52.512;13.520;2022-11-11T02:47:37;9.55;;;2.67;;
22164;SDS011;11248;52.512;13.520;2022-11-11T02:50:03;6.88;;;2.90;;
22164;SDS011;11248;52.512;13.520;2022-11-11T02:52:29;10.75;;;3.17;;
22164;SDS011;11248;52.512;13.520;2022-11-11T02:54:55;8.52;;;2.90;;
22164;SDS011;11248;52.512;13.520;2022-11-11T02:57:21;6.95;;;3.00;;
22164;SDS011;11248;52.512;13.520;2022-11-11T02:59:47;9.18;;;2.67;;
22164;SDS011;11248;52.512;13.520;2022-11-11T03:02:13;9.02;;;3.00;;
22164;SDS011;11248;52.512;13.520;2022-11-11T03:04:39;9.32;;;3.00;;
22164;SDS011;11248;52.512;13.520;2022-11-11T03:07:05;7.93;;;3.63;;
22164;SDS011;11248;52.512;13.520;2022-11-11T03:09:31;4.82;;;2.58;;
22164;SDS011;11248;52.512;13.520;2022-11-11T03:11:57;9.05;;;2.78;;
22164;SDS011;11248;52.512;13.520;2022-11-11T03:14:23;8.18;;;3.08;;
22164;SDS011;11248;52.512;13.520;2022-11-11T03:16:49;8.55;;;2.63;;
22164;SDS011;11248;52.512;13.520;2022-11-11T03:19:33;11.50;;;3.00;;
22164;SDS011;11248;52.512;13.520;2022-11-11T03:21:59;11.32;;;3.42;;
22164;SDS011;11248;52.512;13.520;2022-11-11T03:24:27;8.60;;;3.00;;
22164;SDS011;11248;52.512;13.520;2022-11-11T03:27:13;5.93;;;2.63;;
22164;SDS011;11248;52.512;13.520;2022-11-11T03:29:39;9.20;;;3.13;;
22164;SDS011;11248;52.512;13.520;2022-11-11T03:32:05;6.10;;;3.17;;
22164;SDS011;11248;52.512;13.520;2022-11-11T03:34:31;5.55;;;2.70;;
22164;SDS011;11248;52.512;13.520;2022-11-11T03:36:57;5.85;;;2.78;;
22164;SDS011;11248;52.512;13.520;2022-11-11T03:39:42;6.13;;;3.38;;
22164;SDS011;11248;52.512;13.520;2022-11-11T03:42:08;6.97;;;3.13;;
22164;SDS011;11248;52.512;13.520;2022-11-11T03:44:33;5.85;;;2.53;;
22164;SDS011;11248;52.512;13.520;2022-11-11T03:46:59;5.05;;;2.40;;
22164;SDS011;11248;52.512;13.520;2022-11-11T03:49:25;8.40;;;3.03;;
22164;SDS011;11248;52.512;13.520;2022-11-11T03:51:51;7.78;;;3.47;;
22164;SDS011;11248;52.512;13.520;2022-11-11T03:54:17;6.78;;;2.50;;
22164;SDS011;11248;52.512;13.520;2022-11-11T03:56:43;9.35;;;3.15;;
22164;SDS011;11248;52.512;13.520;2022-11-11T03:59:09;10.93;;;2.90;;
22164;SDS011;11248;52.512;13.520;2022-11-11T04:01:35;7.68;;;3.20;;
22164;SDS011;11248;52.512;13.520;2022-11-11T04:04:19;6.72;;;3.45;;
22164;SDS011;11248;52.512;13.520;2022-11-11T04:07:04;10.35;;;2.92;;
22164;SDS011;11248;52.512;13.520;2022-11-11T04:09:48;8.48;;;3.15;;
22164;SDS011;11248;52.512;13.520;2022-11-11T04:12:33;6.20;;;3.30;;
22164;SDS011;11248;52.512;13.520;2022-11-11T04:15:19;6.00;;;2.88;;
22164;SDS011;11248;52.512;13.520;2022-11-11T04:18:04;6.22;;;3.28;;
22164;SDS011;11248;52.512;13.520;2022-11-11T04:20:30;9.15;;;3.67;;
22164;SDS011;11248;52.512;13.520;2022-11-11T04:23:14;8.82;;;3.30;;
22164;SDS011;11248;52.512;13.520;2022-11-11T04:25:40;9.30;;;2.72;;
22164;SDS011;11248;52.512;13.520;2022-11-11T04:28:16;9.38;;;3.45;;
22164;SDS011;11248;52.512;13.520;2022-11-11T04:31:02;12.07;;;3.35;;
22164;SDS011;11248;52.512;13.520;2022-11-11T04:33:28;5.82;;;3.10;;
22164;SDS011;11248;52.512;13.520;2022-11-11T04:35:54;7.15;;;3.35;;
22164;SDS011;11248;52.512;13.520;2022-11-11T04:38:20;10.68;;;3.75;;
22164;SDS011;11248;52.512;13.520;2022-11-11T04:41:04;9.38;;;3.15;;
22164;SDS011;11248;52.512;13.520;2022-11-11T04:43:32;7.05;;;3.05;;
22164;SDS011;11248;52.512;13.520;2022-11-11T04:46:21;9.73;;;3.63;;
22164;SDS011;11248;52.512;13.520;2022-11-11T04:48:47;9.25;;;3.60;;
22164;SDS011;11248;52.512;13.520;2022-11-11T04:51:13;7.15;;;3.15;;
22164;SDS011;11248;52.512;13.520;2022-11-11T04:53:39;8.10;;;3.13;;
22164;SDS011;11248;52.512;13.520;2022-11-11T04:56:05;7.68;;;2.97;;
22164;SDS011;11248;52.512;13.520;2022-11-11T04:58:50;11.02;;;3.35;;
22164;SDS011;11248;52.512;13.520;2022-11-11T05:01:36;9.88;;;3.63;;
22164;SDS011;11248;52.512;13.520;2022-11-11T05:04:20;8.75;;;3.33;;
22164;SDS011;11248;52.512;13.520;2022-11-11T05:06:46;13.38;;;3.55;;
22164;SDS011;11248;52.512;13.520;2022-11-11T05:09:31;6.47;;;2.97;;
22164;SDS011;11248;52.512;13.520;2022-11-11T05:11:57;6.05;;;3.28;;
22164;SDS011;11248;52.512;13.520;2022-11-11T05:14:22;11.10;;;3.10;;
22164;SDS011;11248;52.512;13.520;2022-11-11T05:17:07;8.07;;;3.38;;
22164;SDS011;11248;52.512;13.520;2022-11-11T05:19:53;3.88;;;2.42;;
22164;SDS011;11248;52.512;13.520;2022-11-11T05:22:38;10.30;;;3.30;;
22164;SDS011;11248;52.512;13.520;2022-11-11T05:25:04;7.68;;;3.45;;
22164;SDS011;11248;52.512;13.520;2022-11-11T05:27:49;8.10;;;3.20;;
22164;SDS011;11248;52.512;13.520;2022-11-11T05:30:15;7.47;;;3.00;;
22164;SDS011;11248;52.512;13.520;2022-11-11T05:32:41;5.97;;;3.10;;
22164;SDS011;11248;52.512;13.520;2022-11-11T05:35:08;6.90;;;3.25;;
22164;SDS011;11248;52.512;13.520;2022-11-11T05:37:36;8.90;;;3.25;;
22164;SDS011;11248;52.512;13.520;2022-11-11T05:40:02;9.57;;;3.33;;
22164;SDS011;11248;52.512;13.520;2022-11-11T05:42:28;4.97;;;2.78;;
22164;SDS011;11248;52.512;13.520;2022-11-11T05:44:54;6.93;;;2.90;;
22164;SDS011;11248;52.512;13.520;2022-11-11T05:47:20;8.18;;;3.28;;
22164;SDS011;11248;52.512;13.520;2022-11-11T05:49:46;10.82;;;3.13;;
22164;SDS011;11248;52.512;13.520;2022-11-11T05:52:12;7.35;;;3.42;;
22164;SDS011;11248;52.512;13.520;2022-11-11T05:54:40;6.68;;;3.08;;
22164;SDS011;11248;52.512;13.520;2022-11-11T05:57:06;5.93;;;2.95;;
22164;SDS011;11248;52.512;13.520;2022-11-11T05:59:32;4.60;;;2.88;;
22164;SDS011;11248;52.512;13.520;2022-11-11T06:01:58;8.18;;;3.17;;
22164;SDS011;11248;52.512;13.520;2022-11-11T06:04:24;3.50;;;3.00;;
22164;SDS011;11248;52.512;13.520;2022-11-11T06:06:50;6.53;;;3.28;;
22164;SDS011;11248;52.512;13.520;2022-11-11T06:09:16;6.55;;;3.08;;
22164;SDS011;11248;52.512;13.520;2022-11-11T06:11:42;5.32;;;2.92;;
22164;SDS011;11248;52.512;13.520;2022-11-11T06:14:08;10.85;;;3.20;;
22164;SDS011;11248;52.512;13.520;2022-11-11T06:16:34;4.53;;;2.50;;
22164;SDS011;11248;52.512;13.520;2022-11-11T06:19:00;5.80;;;3.17;;
22164;SDS011;11248;52.512;13.520;2022-11-11T06:21:28;4.97;;;2.65;;
22164;SDS011;11248;52.512;13.520;2022-11-11T06:23:53;5.53;;;2.70;;
22164;SDS011;11248;52.512;13.520;2022-11-11T06:26:19;8.05;;;3.33;;
22164;SDS011;11248;52.512;13.520;2022-11-11T06:28:49;7.85;;;3.17;;
22164;SDS011;11248;52.512;13.520;2022-11-11T06:31:17;6.32;;;2.95;;
22164;SDS011;11248;52.512;13.520;2022-11-11T06:33:43;7.53;;;3.35;;
22164;SDS011;11248;52.512;13.520;2022-11-11T06:36:10;7.13;;;3.20;;
22164;SDS011;11248;52.512;13.520;2022-11-11T06:38:37;9.05;;;3.13;;
22164;SDS011;11248;52.512;13.520;2022-11-11T06:41:03;5.25;;;2.97;;
22164;SDS011;11248;52.512;13.520;2022-11-11T06:43:29;6.20;;;3.30;;
22164;SDS011;11248;52.512;13.520;2022-11-11T06:45:55;8.40;;;3.47;;
22164;SDS011;11248;52.512;13.520;2022-11-11T06:48:22;6.15;;;3.25;;
22164;SDS011;11248;52.512;13.520;2022-11-11T06:50:48;8.43;;;3.05;;
22164;SDS011;11248;52.512;13.520;2022-11-11T06:53:15;5.18;;;3.05;;
22164;SDS011;11248;52.512;13.520;2022-11-11T06:55:41;9.18;;;4.32;;
22164;SDS011;11248;52.512;13.520;2022-11-11T06:58:17;5.82;;;3.17;;
22164;SDS011;11248;52.512;13.520;2022-11-11T07:00:44;7.28;;;3.47;;
22164;SDS011;11248;52.512;13.520;2022-11-11T07:03:11;5.97;;;2.63;;
22164;SDS011;11248;52.512;13.520;2022-11-11T07:05:37;7.68;;;3.85;;
22164;SDS011;11248;52.512;13.520;2022-11-11T07:08:03;8.30;;;3.50;;
22164;SDS011;11248;52.512;13.520;2022-11-11T07:10:30;9.13;;;4.07;;
22164;SDS011;11248;52.512;13.520;2022-11-11T07:12:56;5.82;;;3.13;;
22164;SDS011;11248;52.512;13.520;2022-11-11T07:15:22;12.75;;;4.55;;
22164;SDS011;11248;52.512;13.520;2022-11-11T07:17:48;7.55;;;3.75;;
22164;SDS011;11248;52.512;13.520;2022-11-11T07:20:14;9.90;;;4.78;;
22164;SDS011;11248;52.512;13.520;2022-11-11T07:22:40;9.65;;;3.95;;
22164;SDS011;11248;52.512;13.520;2022-11-11T07:25:06;8.55;;;3.88;;
22164;SDS011;11248;52.512;13.520;2022-11-11T07:27:35;10.00;;;4.43;;
22164;SDS011;11248;52.512;13.520;2022-11-11T07:30:02;9.45;;;3.85;;
22164;SDS011;11248;52.512;13.520;2022-11-11T07:32:28;8.45;;;3.55;;
22164;SDS011;11248;52.512;13.520;2022-11-11T07:34:54;7.90;;;4.18;;
22164;SDS011;11248;52.512;13.520;2022-11-11T07:37:20;7.90;;;3.78;;
22164;SDS011;11248;52.512;13.520;2022-11-11T07:39:45;11.15;;;3.80;;
22164;SDS011;11248;52.512;13.520;2022-11-11T07:42:11;7.22;;;3.72;;
22164;SDS011;11248;52.512;13.520;2022-11-11T07:44:37;8.65;;;3.60;;
22164;SDS011;11248;52.512;13.520;2022-11-11T07:47:03;6.43;;;3.55;;
22164;SDS011;11248;52.512;13.520;2022-11-11T07:49:29;10.77;;;3.72;;
22164;SDS011;11248;52.512;13.520;2022-11-11T07:51:55;7.07;;;3.65;;
22164;SDS011;11248;52.512;13.520;2022-11-11T07:54:21;5.53;;;3.33;;
22164;SDS011;11248;52.512;13.520;2022-11-11T07:56:47;5.22;;;3.10;;
22164;SDS011;11248;52.512;13.520;2022-11-11T07:59:13;7.93;;;3.28;;
22164;SDS011;11248;52.512;13.520;2022-11-11T08:01:39;7.43;;;3.28;;
22164;SDS011;11248;52.512;13.520;2022-11-11T08:04:05;6.80;;;3.40;;
22164;SDS011;11248;52.512;13.520;2022-11-11T08:06:31;9.15;;;3.50;;
22164;SDS011;11248;52.512;13.520;2022-11-11T08:08:56;10.00;;;3.83;;
22164;SDS011;11248;52.512;13.520;2022-11-11T08:11:22;9.70;;;3.67;;
22164;SDS011;11248;52.512;13.520;2022-11-11T08:14:07;10.27;;;4.00;;
22164;SDS011;11248;52.512;13.520;2022-11-11T08:16:33;10.15;;;3.88;;
22164;SDS011;11248;52.512;13.520;2022-11-11T08:18:59;10.63;;;4.18;;
22164;SDS011;11248;52.512;13.520;2022-11-11T08:21:25;6.85;;;3.95;;
22164;SDS011;11248;52.512;13.520;2022-11-11T08:23:51;9.75;;;3.80;;
22164;SDS011;11248;52.512;13.520;2022-11-11T08:26:18;8.57;;;3.80;;
22164;SDS011;11248;52.512;13.520;2022-11-11T08:28:44;11.07;;;4.07;;
22164;SDS011;11248;52.512;13.520;2022-11-11T08:31:10;9.30;;;3.25;;
22164;SDS011;11248;52.512;13.520;2022-11-11T08:33:36;14.38;;;4.20;;
22164;SDS011;11248;52.512;13.520;2022-11-11T08:36:02;8.57;;;3.40;;
22164;SDS011;11248;52.512;13.520;2022-11-11T08:38:29;9.77;;;4.00;;
22164;SDS011;11248;52.512;13.520;2022-11-11T08:40:58;5.60;;;3.40;;
22164;SDS011;11248;52.512;13.520;2022-11-11T08:43:24;12.75;;;4.30;;
22164;SDS011;11248;52.512;13.520;2022-11-11T08:45:53;8.80;;;3.80;;
22164;SDS011;11248;52.512;13.520;2022-11-11T08:48:21;6.00;;;3.25;;
22164;SDS011;11248;52.512;13.520;2022-11-11T08:50:50;7.82;;;3.90;;
22164;SDS011;11248;52.512;13.520;2022-11-11T08:53:16;7.35;;;3.72;;
22164;SDS011;11248;52.512;13.520;2022-11-11T08:55:42;9.15;;;3.30;;
22164;SDS011;11248;52.512;13.520;2022-11-11T08:58:08;9.45;;;3.67;;
22164;SDS011;11248;52.512;13.520;2022-11-11T09:00:34;7.28;;;3.03;;
22164;SDS011;11248;52.512;13.520;2022-11-11T09:03:05;10.52;;;3.20;;
22164;SDS011;11248;52.512;13.520;2022-11-11T09:05:31;5.43;;;3.10;;
22164;SDS011;11248;52.512;13.520;2022-11-11T09:08:01;8.55;;;3.63;;
22164;SDS011;11248;52.512;13.520;2022-11-11T09:10:27;8.45;;;3.10;;
22164;SDS011;11248;52.512;13.520;2022-11-11T09:12:59;7.60;;;3.10;;
22164;SDS011;11248;52.512;13.520;2022-11-11T09:15:25;8.02;;;3.45;;
22164;SDS011;11248;52.512;13.520;2022-11-11T09:17:51;4.80;;;2.67;;
22164;SDS011;11248;52.512;13.520;2022-11-11T09:20:17;6.07;;;3.08;;
22164;SDS011;11248;52.512;13.520;2022-11-11T09:22:44;9.52;;;2.92;;
22164;SDS011;11248;52.512;13.520;2022-11-11T09:25:10;13.43;;;3.22;;
22164;SDS011;11248;52.512;13.520;2022-11-11T09:27:36;7.43;;;3.28;;
22164;SDS011;11248;52.512;13.520;2022-11-11T09:30:02;8.00;;;3.17;;
22164;SDS011;11248;52.512;13.520;2022-11-11T09:32:29;5.63;;;2.72;;
22164;SDS011;11248;52.512;13.520;2022-11-11T09:34:55;7.03;;;2.50;;
22164;SDS011;11248;52.512;13.520;2022-11-11T09:37:21;8.90;;;3.08;;
22164;SDS011;11248;52.512;13.520;2022-11-11T09:39:47;7.60;;;2.83;;
22164;SDS011;11248;52.512;13.520;2022-11-11T09:42:16;11.88;;;2.72;;
22164;SDS011;11248;52.512;13.520;2022-11-11T09:47:20;6.47;;;2.50;;
22164;SDS011;11248;52.512;13.520;2022-11-11T09:49:51;6.43;;;2.63;;
22164;SDS011;11248;52.512;13.520;2022-11-11T09:52:21;4.22;;;2.30;;
22164;SDS011;11248;52.512;13.520;2022-11-11T09:54:53;6.22;;;2.53;;
22164;SDS011;11248;52.512;13.520;2022-11-11T09:57:22;5.68;;;2.60;;
22164;SDS011;11248;52.512;13.520;2022-11-11T09:59:52;9.00;;;2.72;;
22164;SDS011;11248;52.512;13.520;2022-11-11T10:02:33;8.15;;;2.55;;
22164;SDS011;11248;52.512;13.520;2022-11-11T10:07:59;5.18;;;2.25;;
22164;SDS011;11248;52.512;13.520;2022-11-11T10:10:33;5.32;;;2.47;;
22164;SDS011;11248;52.512;13.520;2022-11-11T10:13:03;3.92;;;2.00;;
22164;SDS011;11248;52.512;13.520;2022-11-11T10:15:32;3.03;;;2.00;;
22164;SDS011;11248;52.512;13.520;2022-11-11T10:20:38;13.10;;;2.42;;
22164;SDS011;11248;52.512;13.520;2022-11-11T10:23:14;6.82;;;2.75;;
22164;SDS011;11248;52.512;13.520;2022-11-11T10:25:54;4.82;;;2.47;;
22164;SDS011;11248;52.512;13.520;2022-11-11T10:28:21;4.57;;;2.63;;
22164;SDS011;11248;52.512;13.520;2022-11-11T10:30:48;3.17;;;2.10;;
22164;SDS011;11248;52.512;13.520;2022-11-11T10:33:23;4.22;;;2.40;;
22164;SDS011;11248;52.512;13.520;2022-11-11T10:35:49;6.20;;;2.05;;
22164;SDS011;11248;52.512;13.520;2022-11-11T10:39:02;7.47;;;2.60;;
22164;SDS011;11248;52.512;13.520;2022-11-11T10:41:04;6.35;;;2.35;;
22164;SDS011;11248;52.512;13.520;2022-11-11T10:43:35;4.80;;;2.13;;
22164;SDS011;11248;52.512;13.520;2022-11-11T10:46:13;4.80;;;2.50;;
22164;SDS011;11248;52.512;13.520;2022-11-11T10:48:48;5.97;;;2.30;;
22164;SDS011;11248;52.512;13.520;2022-11-11T10:51:15;5.32;;;2.55;;
22164;SDS011;11248;52.512;13.520;2022-11-11T10:53:48;5.78;;;2.30;;
22164;SDS011;11248;52.512;13.520;2022-11-11T10:56:18;5.32;;;2.25;;
22164;SDS011;11248;52.512;13.520;2022-11-11T10:58:47;9.15;;;2.47;;
22164;SDS011;11248;52.512;13.520;2022-11-11T11:01:15;8.40;;;2.65;;
22164;SDS011;11248;52.512;13.520;2022-11-11T11:03:46;6.72;;;2.38;;
22164;SDS011;11248;52.512;13.520;2022-11-11T11:06:21;4.45;;;2.00;;
22164;SDS011;11248;52.512;13.520;2022-11-11T11:08:50;6.80;;;2.47;;
22164;SDS011;11248;52.512;13.520;2022-11-11T11:11:22;4.82;;;2.42;;
22164;SDS011;11248;52.512;13.520;2022-11-11T11:13:59;5.30;;;2.60;;
22164;SDS011;11248;52.512;13.520;2022-11-11T11:16:31;4.75;;;2.05;;
22164;SDS011;11248;52.512;13.520;2022-11-11T11:24:17;6.18;;;2.58;;
22164;SDS011;11248;52.512;13.520;2022-11-11T11:26:44;3.73;;;1.90;;
22164;SDS011;11248;52.512;13.520;2022-11-11T11:29:10;4.00;;;1.75;;
22164;SDS011;11248;52.512;13.520;2022-11-11T11:31:37;7.28;;;2.22;;
22164;SDS011;11248;52.512;13.520;2022-11-11T11:34:04;4.88;;;1.95;;
22164;SDS011;11248;52.512;13.520;2022-11-11T11:36:29;4.78;;;1.60;;
22164;SDS011;11248;52.512;13.520;2022-11-11T11:38:55;6.43;;;2.30;;
22164;SDS011;11248;52.512;13.520;2022-11-11T11:41:34;3.78;;;1.67;;
22164;SDS011;11248;52.512;13.520;2022-11-11T11:44:00;6.65;;;2.08;;
22164;SDS011;11248;52.512;13.520;2022-11-11T11:46:34;4.18;;;1.85;;
22164;SDS011;11248;52.512;13.520;2022-11-11T11:54:16;5.18;;;1.70;;
22164;SDS011;11248;52.512;13.520;2022-11-11T11:56:50;5.00;;;1.92;;
22164;SDS011;11248;52.512;13.520;2022-11-11T11:59:38;4.07;;;2.10;;
22164;SDS011;11248;52.512;13.520;2022-11-11T12:02:06;6.20;;;1.70;;
22164;SDS011;11248;52.512;13.520;2022-11-11T12:09:53;5.30;;;2.25;;
22164;SDS011;11248;52.512;13.520;2022-11-11T12:12:28;5.53;;;2.47;;
22164;SDS011;11248;52.512;13.520;2022-11-11T12:15:13;4.20;;;2.00;;
22164;SDS011;11248;52.512;13.520;2022-11-11T12:17:48;5.05;;;2.17;;
22164;SDS011;11248;52.512;13.520;2022-11-11T12:22:48;4.57;;;2.17;;
22164;SDS011;11248;52.512;13.520;2022-11-11T12:25:22;3.05;;;2.05;;
22164;SDS011;11248;52.512;13.520;2022-11-11T12:28:09;4.90;;;2.30;;
22164;SDS011;11248;52.512;13.520;2022-11-11T12:30:39;4.85;;;1.92;;
22164;SDS011;11248;52.512;13.520;2022-11-11T12:38:29;4.72;;;2.40;;
22164;SDS011;11248;52.512;13.520;2022-11-11T12:41:06;5.20;;;2.30;;
22164;SDS011;11248;52.512;13.520;2022-11-11T12:43:39;4.95;;;2.10;;
22164;SDS011;11248;52.512;13.520;2022-11-11T12:48:55;6.72;;;2.25;;
22164;SDS011;11248;52.512;13.520;2022-11-11T12:51:36;5.95;;;2.08;;
22164;SDS011;11248;52.512;13.520;2022-11-11T12:54:24;4.07;;;2.07;;
22164;SDS011;11248;52.512;13.520;2022-11-11T12:59:24;4.05;;;1.90;;
22164;SDS011;11248;52.512;13.520;2022-11-11T13:02:01;5.78;;;2.30;;
22164;SDS011;11248;52.512;13.520;2022-11-11T13:07:28;3.53;;;2.03;;
22164;SDS011;11248;52.512;13.520;2022-11-11T13:10:02;5.30;;;2.50;;
22164;SDS011;11248;52.512;13.520;2022-11-11T13:12:35;3.83;;;2.08;;
22164;SDS011;11248;52.512;13.520;2022-11-11T13:15:10;5.30;;;2.30;;
22164;SDS011;11248;52.512;13.520;2022-11-11T13:17:37;4.50;;;2.08;;
22164;SDS011;11248;52.512;13.520;2022-11-11T13:20:20;4.78;;;2.00;;
22164;SDS011;11248;52.512;13.520;2022-11-11T13:22:53;5.40;;;2.00;;
22164;SDS011;11248;52.512;13.520;2022-11-11T13:25:23;4.10;;;2.22;;
22164;SDS011;11248;52.512;13.520;2022-11-11T13:27:50;3.30;;;2.05;;
22164;SDS011;11248;52.512;13.520;2022-11-11T13:30:33;7.38;;;2.13;;
22164;SDS011;11248;52.512;13.520;2022-11-11T13:33:02;3.40;;;2.10;;
22164;SDS011;11248;52.512;13.520;2022-11-11T13:37:55;4.10;;;2.10;;
22164;SDS011;11248;52.512;13.520;2022-11-11T13:40:28;5.30;;;2.05;;
22164;SDS011;11248;52.512;13.520;2022-11-11T13:42:57;6.65;;;2.20;;
22164;SDS011;11248;52.512;13.520;2022-11-11T13:45:25;4.07;;;2.00;;
22164;SDS011;11248;52.512;13.520;2022-11-11T13:47:52;5.45;;;1.90;;
22164;SDS011;11248;52.512;13.520;2022-11-11T13:52:53;3.88;;;2.13;;
22164;SDS011;11248;52.512;13.520;2022-11-11T13:55:31;6.20;;;2.22;;
22164;SDS011;11248;52.512;13.520;2022-11-11T13:57:59;5.68;;;2.40;;
22164;SDS011;11248;52.512;13.520;2022-11-11T14:00:32;6.25;;;2.15;;
22164;SDS011;11248;52.512;13.520;2022-11-11T14:05:38;3.90;;;1.92;;
22164;SDS011;11248;52.512;13.520;2022-11-11T14:08:05;4.28;;;2.10;;
22164;SDS011;11248;52.512;13.520;2022-11-11T14:15:40;4.28;;;2.00;;
22164;SDS011;11248;52.512;13.520;2022-11-11T14:20:45;5.75;;;2.60;;
22164;SDS011;11248;52.512;13.520;2022-11-11T14:25:43;4.78;;;2.15;;
22164;SDS011;11248;52.512;13.520;2022-11-11T14:28:25;3.38;;;1.67;;
22164;SDS011;11248;52.512;13.520;2022-11-11T14:30:52;4.15;;;2.00;;
22164;SDS011;11248;52.512;13.520;2022-11-11T14:36:11;5.82;;;2.22;;
22164;SDS011;11248;52.512;13.520;2022-11-11T14:43:52;4.63;;;2.50;;
22164;SDS011;11248;52.512;13.520;2022-11-11T14:46:18;6.22;;;2.60;;
22164;SDS011;11248;52.512;13.520;2022-11-11T14:56:24;5.90;;;2.25;;
22164;SDS011;11248;52.512;13.520;2022-11-11T14:58:52;4.63;;;2.33;;
22164;SDS011;11248;52.512;13.520;2022-11-11T15:01:18;8.27;;;3.72;;
22164;SDS011;11248;52.512;13.520;2022-11-11T15:03:49;4.97;;;2.75;;
22164;SDS011;11248;52.512;13.520;2022-11-11T15:06:31;9.77;;;6.25;;
22164;SDS011;11248;52.512;13.520;2022-11-11T15:09:21;6.68;;;3.25;;
22164;SDS011;11248;52.512;13.520;2022-11-11T15:12:04;8.82;;;5.18;;
22164;SDS011;11248;52.512;13.520;2022-11-11T15:14:36;6.88;;;3.63;;
22164;SDS011;11248;52.512;13.520;2022-11-11T15:20:14;4.03;;;2.65;;
22164;SDS011;11248;52.512;13.520;2022-11-11T15:30:14;5.25;;;3.30;;
22164;SDS011;11248;52.512;13.520;2022-11-11T15:32:54;5.93;;;3.08;;
22164;SDS011;11248;52.512;13.520;2022-11-11T15:35:38;5.45;;;3.17;;
22164;SDS011;11248;52.512;13.520;2022-11-11T15:38:08;9.05;;;2.67;;
22164;SDS011;11248;52.512;13.520;2022-11-11T15:43:21;6.75;;;3.67;;
22164;SDS011;11248;52.512;13.520;2022-11-11T15:45:51;4.93;;;2.58;;
22164;SDS011;11248;52.512;13.520;2022-11-11T15:48:22;6.65;;;2.42;;
22164;SDS011;11248;52.512;13.520;2022-11-11T15:50:49;6.35;;;2.45;;
22164;SDS011;11248;52.512;13.520;2022-11-11T15:53:20;5.68;;;3.40;;
22164;SDS011;11248;52.512;13.520;2022-11-11T15:55:50;8.23;;;4.97;;
22164;SDS011;11248;52.512;13.520;2022-11-11T15:58:23;5.63;;;2.80;;
22164;SDS011;11248;52.512;13.520;2022-11-11T16:00:49;5.90;;;2.55;;
22164;SDS011;11248;52.512;13.520;2022-11-11T16:03:17;10.07;;;4.70;;
22164;SDS011;11248;52.512;13.520;2022-11-11T16:05:44;7.38;;;2.78;;
22164;SDS011;11248;52.512;13.520;2022-11-11T16:08:11;5.95;;;2.75;;
22164;SDS011;11248;52.512;13.520;2022-11-11T16:10:41;5.88;;;2.40;;
22164;SDS011;11248;52.512;13.520;2022-11-11T16:13:12;8.93;;;4.85;;
22164;SDS011;11248;52.512;13.520;2022-11-11T16:18:06;5.07;;;3.55;;
22164;SDS011;11248;52.512;13.520;2022-11-11T16:20:37;6.53;;;3.22;;